Time;durP1;ratioP1;P1;durP2;ratioP2;P2;SDS_P1;SDS_P2;PMS_P1;PMS_P2;Temp;Humidity;BMP_temperature;BMP_pressure;BME280_temperature;BME280_humidity;BME280_pressure;Samples;Min_cycle;Max_cycle;Signal;HPM_P1;HPM_P2
2021/03/04 00:02:11;;;;;;;54.20;30.90;;;;;;;;;;5071820;28;20602;-71
2021/03/04 00:04:37;;;;;;;47.63;31.57;;;;;;;;;;5050364;28;20208;-75
2021/03/04 00:07:03;;;;;;;46.87;28.23;;;;;;;;;;5051958;28;20209;-71
2021/03/04 00:09:29;;;;;;;49.07;29.47;;;;;;;;;;5051474;28;20690;-71
2021/03/04 00:11:55;;;;;;;52.50;30.00;;;;;;;;;;5051780;28;20184;-72
2021/03/04 00:14:22;;;;;;;51.47;31.00;;;;;;;;;;5141031;22;20725;-72
2021/03/04 00:16:48;;;;;;;56.23;31.07;;;;;;;;;;5021625;28;20686;-75
2021/03/04 00:19:14;;;;;;;50.63;31.33;;;;;;;;;;5030605;28;20236;-75
2021/03/04 00:21:40;;;;;;;50.93;29.20;;;;;;;;;;5033388;28;20902;-71
2021/03/04 00:24:07;;;;;;;51.73;30.87;;;;;;;;;;5032853;28;20722;-72
2021/03/04 00:26:33;;;;;;;50.57;30.60;;;;;;;;;;5030637;28;20188;-71
2021/03/04 00:28:59;;;;;;;48.93;30.10;;;;;;;;;;5030238;28;20681;-73
2021/03/04 00:31:26;;;;;;;45.10;29.77;;;;;;;;;;5031182;28;20744;-70
2021/03/04 00:33:52;;;;;;;42.83;29.30;;;;;;;;;;5029874;28;20673;-70
2021/03/04 00:36:18;;;;;;;44.47;27.83;;;;;;;;;;5030159;28;20182;-74
2021/03/04 00:38:47;;;;;;;44.20;28.80;;;;;;;;;;5031422;28;20691;-71
2021/03/04 00:41:13;;;;;;;42.60;28.43;;;;;;;;;;5030136;28;20259;-71
2021/03/04 00:43:39;;;;;;;46.43;30.10;;;;;;;;;;5031377;28;20215;-74
2021/03/04 00:46:06;;;;;;;45.07;28.63;;;;;;;;;;5018280;28;20530;-74
2021/03/04 00:48:32;;;;;;;48.27;29.47;;;;;;;;;;5022054;28;20260;-71
2021/03/04 00:50:58;;;;;;;49.77;29.73;;;;;;;;;;5030247;28;20193;-74
2021/03/04 00:53:24;;;;;;;47.87;29.83;;;;;;;;;;5031113;28;20554;-74
2021/03/04 00:55:50;;;;;;;52.97;30.33;;;;;;;;;;5030934;28;20228;-71
2021/03/04 00:58:17;;;;;;;49.53;30.17;;;;;;;;;;5031348;28;20210;-75
2021/03/04 01:00:43;;;;;;;48.27;30.60;;;;;;;;;;5030836;28;20177;-71
2021/03/04 01:03:09;;;;;;;44.80;29.73;;;;;;;;;;5030865;28;20188;-74
2021/03/04 01:05:36;;;;;;;46.77;29.20;;;;;;;;;;5030732;28;20207;-71
2021/03/04 01:08:02;;;;;;;47.23;30.37;;;;;;;;;;5031134;28;20258;-74
2021/03/04 01:10:32;;;;;;;53.73;31.67;;;;;;;;;;5031166;28;20174;-73
2021/03/04 01:12:58;;;;;;;44.40;28.00;;;;;;;;;;5030385;28;20636;-71
2021/03/04 01:15:24;;;;;;;46.27;29.80;;;;;;;;;;5024742;28;20301;-74
2021/03/04 01:17:51;;;;;;;49.47;30.20;;;;;;;;;;5035551;28;20264;-70
2021/03/04 01:20:18;;;;;;;43.83;27.23;;;;;;;;;;5037121;28;20235;-74
2021/03/04 01:22:47;;;;;;;47.57;30.57;;;;;;;;;;5037054;28;20211;-70
2021/03/04 01:25:14;;;;;;;49.33;31.27;;;;;;;;;;5019334;28;20304;-71
2021/03/04 01:27:41;;;;;;;47.73;29.50;;;;;;;;;;5037588;28;20209;-70
2021/03/04 01:30:08;;;;;;;45.33;28.63;;;;;;;;;;5039279;28;20191;-70
2021/03/04 01:32:35;;;;;;;47.00;30.00;;;;;;;;;;5039062;28;20177;-72
2021/03/04 01:35:01;;;;;;;53.73;30.77;;;;;;;;;;5048353;23;20237;-80
2021/03/04 01:37:27;;;;;;;50.67;29.97;;;;;;;;;;5042968;28;20165;-79
2021/03/04 01:39:54;;;;;;;48.60;29.83;;;;;;;;;;5041909;28;20179;-79
2021/03/04 01:42:20;;;;;;;55.10;30.97;;;;;;;;;;5043085;28;20276;-79
2021/03/04 01:44:46;;;;;;;46.83;29.70;;;;;;;;;;5035367;28;20197;-79
2021/03/04 01:47:12;;;;;;;50.23;29.73;;;;;;;;;;5044158;28;20173;-79
2021/03/04 01:49:38;;;;;;;43.10;28.57;;;;;;;;;;5045762;28;20210;-79
2021/03/04 01:52:04;;;;;;;44.93;29.33;;;;;;;;;;5044218;28;20177;-79
2021/03/04 01:54:31;;;;;;;51.00;30.40;;;;;;;;;;5045720;28;20213;-79
2021/03/04 01:56:57;;;;;;;49.27;30.83;;;;;;;;;;5046036;28;20197;-78
2021/03/04 01:59:23;;;;;;;53.33;32.60;;;;;;;;;;5046084;28;20176;-78
2021/03/04 02:01:49;;;;;;;46.77;31.33;;;;;;;;;;5044658;28;20545;-79
2021/03/04 02:04:16;;;;;;;49.80;29.87;;;;;;;;;;5045797;28;20212;-78
2021/03/04 02:06:49;;;;;;;47.93;29.77;;;;;;;;;;5046147;28;20179;-79
2021/03/04 02:09:16;;;;;;;47.93;30.30;;;;;;;;;;5041426;28;20201;-78
2021/03/04 02:11:50;;;;;;;47.97;30.43;;;;;;;;;;5024869;28;20175;-79
2021/03/04 02:14:18;;;;;;;54.50;32.53;;;;;;;;;;5013366;28;20195;-79
2021/03/04 02:16:47;;;;;;;47.63;30.23;;;;;;;;;;5034622;28;20209;-79
2021/03/04 02:19:31;;;;;;;48.83;31.33;;;;;;;;;;5044403;28;20181;-79
2021/03/04 02:22:09;;;;;;;54.30;32.60;;;;;;;;;;5044902;28;20209;-79
2021/03/04 02:24:36;;;;;;;57.73;32.90;;;;;;;;;;5045003;28;20230;-79
2021/03/04 02:27:03;;;;;;;51.60;32.03;;;;;;;;;;5043928;28;20184;-79
2021/03/04 02:29:32;;;;;;;56.17;34.77;;;;;;;;;;5044608;28;20200;-79
2021/03/04 02:31:59;;;;;;;51.43;31.00;;;;;;;;;;5040024;28;20175;-79
2021/03/04 02:34:26;;;;;;;48.30;30.83;;;;;;;;;;5012217;28;20234;-79
2021/03/04 02:36:53;;;;;;;56.40;31.20;;;;;;;;;;5039656;28;20173;-79
2021/03/04 02:39:20;;;;;;;46.70;30.23;;;;;;;;;;5043355;28;20180;-79
2021/03/04 02:41:46;;;;;;;52.47;31.83;;;;;;;;;;5043332;28;20201;-79
2021/03/04 02:44:12;;;;;;;49.07;30.90;;;;;;;;;;5032411;28;20732;-79
2021/03/04 02:46:39;;;;;;;48.13;31.70;;;;;;;;;;5031967;28;20258;-79
2021/03/04 02:49:06;;;;;;;48.77;30.17;;;;;;;;;;5044101;28;20749;-79
2021/03/04 02:51:35;;;;;;;46.43;31.20;;;;;;;;;;5029525;28;20178;-79
2021/03/04 02:54:01;;;;;;;53.47;32.70;;;;;;;;;;5028028;28;20174;-79
2021/03/04 02:56:29;;;;;;;54.00;31.10;;;;;;;;;;5032755;28;20213;-79
2021/03/04 02:58:58;;;;;;;54.53;31.87;;;;;;;;;;5042327;28;20178;-79
2021/03/04 03:01:25;;;;;;;49.50;31.60;;;;;;;;;;5044086;28;20178;-79
2021/03/04 03:03:52;;;;;;;47.77;31.40;;;;;;;;;;5027395;28;20181;-79
2021/03/04 03:06:18;;;;;;;54.17;31.43;;;;;;;;;;5015858;28;20178;-79
2021/03/04 03:08:49;;;;;;;47.77;31.53;;;;;;;;;;5029617;28;20194;-79
2021/03/04 03:11:16;;;;;;;51.33;31.80;;;;;;;;;;5021632;28;20184;-79
2021/03/04 03:13:43;;;;;;;50.47;33.20;;;;;;;;;;5030913;28;20261;-79
2021/03/04 03:16:09;;;;;;;50.57;32.40;;;;;;;;;;5033457;28;20177;-79
2021/03/04 03:18:36;;;;;;;56.07;32.30;;;;;;;;;;5043418;28;20182;-79
2021/03/04 03:21:02;;;;;;;49.07;31.53;;;;;;;;;;5043580;28;20199;-79
2021/03/04 03:23:29;;;;;;;55.83;32.23;;;;;;;;;;5034946;28;20181;-79
2021/03/04 03:25:55;;;;;;;53.93;33.30;;;;;;;;;;5038282;28;20251;-79
2021/03/04 03:28:21;;;;;;;53.70;33.37;;;;;;;;;;5040172;28;20196;-79
2021/03/04 03:30:47;;;;;;;51.07;31.57;;;;;;;;;;5032504;28;20173;-79
2021/03/04 03:33:15;;;;;;;67.67;36.43;;;;;;;;;;5041756;28;20203;-79
2021/03/04 03:35:41;;;;;;;51.77;33.50;;;;;;;;;;5029277;28;20264;-79
2021/03/04 03:38:08;;;;;;;49.23;31.37;;;;;;;;;;5030557;28;20180;-79
2021/03/04 03:40:36;;;;;;;63.23;36.03;;;;;;;;;;5044147;28;20645;-79
2021/03/04 03:43:03;;;;;;;51.17;32.17;;;;;;;;;;5030622;28;20177;-79
2021/03/04 03:45:38;;;;;;;52.57;31.37;;;;;;;;;;5042244;28;20595;-79
2021/03/04 03:48:07;;;;;;;58.83;34.10;;;;;;;;;;5044060;28;20205;-79
2021/03/04 03:50:35;;;;;;;48.37;30.17;;;;;;;;;;5030161;28;20238;-79
2021/03/04 03:53:02;;;;;;;53.07;32.50;;;;;;;;;;5043174;28;20184;-79
2021/03/04 03:55:29;;;;;;;239.47;106.37;;;;;;;;;;5043668;28;20261;-79
2021/03/04 03:57:56;;;;;;;57.60;35.83;;;;;;;;;;5043854;28;20209;-79
2021/03/04 04:00:25;;;;;;;56.13;34.97;;;;;;;;;;5042044;28;20187;-79
2021/03/04 04:02:55;;;;;;;53.00;31.10;;;;;;;;;;5044102;28;20184;-79
2021/03/04 04:05:21;;;;;;;45.63;31.13;;;;;;;;;;5029654;28;20210;-79
2021/03/04 04:07:48;;;;;;;48.00;30.70;;;;;;;;;;5043016;28;20208;-78
2021/03/04 04:10:14;;;;;;;55.50;33.03;;;;;;;;;;5043811;28;20653;-79
2021/03/04 04:12:41;;;;;;;70.93;35.73;;;;;;;;;;5044131;28;20261;-79
2021/03/04 04:15:07;;;;;;;85.97;41.60;;;;;;;;;;5044046;28;20196;-79
2021/03/04 04:17:33;;;;;;;102.37;44.90;;;;;;;;;;5039710;28;20259;-79
2021/03/04 04:20:02;;;;;;;85.70;41.53;;;;;;;;;;5023598;28;20209;-79
2021/03/04 04:22:28;;;;;;;67.33;36.83;;;;;;;;;;5025079;28;20192;-79
2021/03/04 04:24:55;;;;;;;262.23;93.17;;;;;;;;;;5042727;28;20565;-79
2021/03/04 04:27:21;;;;;;;52.20;32.97;;;;;;;;;;5043527;28;20189;-79
2021/03/04 04:29:48;;;;;;;163.63;82.27;;;;;;;;;;5023893;28;20600;-79
2021/03/04 04:32:14;;;;;;;55.83;33.57;;;;;;;;;;5043517;28;20190;-79
2021/03/04 04:34:40;;;;;;;53.97;32.77;;;;;;;;;;5042717;28;20749;-79
2021/03/04 04:37:07;;;;;;;49.40;30.60;;;;;;;;;;5043445;28;20258;-79
2021/03/04 04:39:33;;;;;;;57.53;35.47;;;;;;;;;;5030718;28;20186;-79
2021/03/04 04:42:00;;;;;;;51.47;32.03;;;;;;;;;;5024827;28;20187;-79
2021/03/04 04:44:26;;;;;;;54.13;33.57;;;;;;;;;;5042322;28;20213;-79
2021/03/04 04:46:52;;;;;;;50.60;32.00;;;;;;;;;;5020311;28;20271;-79
2021/03/04 04:49:19;;;;;;;54.43;31.83;;;;;;;;;;5031641;28;20679;-79
2021/03/04 04:51:45;;;;;;;48.87;31.80;;;;;;;;;;5036920;28;20186;-79
2021/03/04 04:54:11;;;;;;;52.33;31.90;;;;;;;;;;5028414;28;20194;-79
2021/03/04 04:56:38;;;;;;;51.17;30.83;;;;;;;;;;5030951;28;20566;-79
2021/03/04 04:59:04;;;;;;;50.53;30.43;;;;;;;;;;5041261;28;20185;-79
2021/03/04 05:01:30;;;;;;;48.27;30.73;;;;;;;;;;5025058;28;20245;-78
2021/03/04 05:03:56;;;;;;;51.23;30.77;;;;;;;;;;5011854;28;20554;-78
2021/03/04 05:06:23;;;;;;;48.00;29.07;;;;;;;;;;5014413;28;20174;-78
2021/03/04 05:08:49;;;;;;;48.43;30.60;;;;;;;;;;5035714;28;20616;-78
2021/03/04 05:11:16;;;;;;;48.03;30.93;;;;;;;;;;5027162;28;20180;-78
2021/03/04 05:13:44;;;;;;;51.87;30.53;;;;;;;;;;5007629;28;20186;-78
2021/03/04 05:16:10;;;;;;;51.27;29.97;;;;;;;;;;5012766;28;20179;-78
2021/03/04 05:18:37;;;;;;;43.70;29.93;;;;;;;;;;5008242;28;20566;-78
2021/03/04 05:21:03;;;;;;;46.50;29.93;;;;;;;;;;5022312;28;20192;-78
2021/03/04 05:23:29;;;;;;;48.50;29.47;;;;;;;;;;5022077;28;20185;-78
2021/03/04 05:25:55;;;;;;;46.63;30.10;;;;;;;;;;5037166;28;20543;-77
2021/03/04 05:28:22;;;;;;;50.80;30.10;;;;;;;;;;5039066;28;20236;-78
2021/03/04 05:30:48;;;;;;;45.77;28.73;;;;;;;;;;5032324;28;20181;-79
2021/03/04 05:33:14;;;;;;;48.77;30.17;;;;;;;;;;5028847;28;20178;-78
2021/03/04 05:35:40;;;;;;;53.97;29.63;;;;;;;;;;5021224;28;20268;-79
2021/03/04 05:38:06;;;;;;;47.53;30.10;;;;;;;;;;5021774;28;20197;-78
2021/03/04 05:40:32;;;;;;;45.23;29.33;;;;;;;;;;5018645;28;20657;-78
2021/03/04 05:42:59;;;;;;;46.93;28.33;;;;;;;;;;5017443;28;20205;-77
2021/03/04 05:45:26;;;;;;;47.07;29.53;;;;;;;;;;5020588;28;20269;-78
2021/03/04 05:47:52;;;;;;;45.90;30.27;;;;;;;;;;5018305;28;20208;-78
2021/03/04 05:50:20;;;;;;;45.73;29.13;;;;;;;;;;5024996;28;20202;-78
2021/03/04 05:52:50;;;;;;;41.93;27.43;;;;;;;;;;5016253;28;20182;-78
2021/03/04 05:55:16;;;;;;;45.77;29.30;;;;;;;;;;5015630;28;20197;-78
2021/03/04 05:57:44;;;;;;;50.37;29.03;;;;;;;;;;5022211;28;20281;-78
2021/03/04 06:00:11;;;;;;;50.73;31.40;;;;;;;;;;5036776;28;20249;-77
2021/03/04 06:02:38;;;;;;;48.37;29.87;;;;;;;;;;5022660;28;20306;-78
2021/03/04 06:05:05;;;;;;;45.40;28.77;;;;;;;;;;5005321;28;20207;-78
2021/03/04 06:07:31;;;;;;;44.50;29.57;;;;;;;;;;5027319;28;20177;-78
2021/03/04 06:09:57;;;;;;;44.83;29.27;;;;;;;;;;5024039;28;20226;-78
2021/03/04 06:12:23;;;;;;;47.50;30.37;;;;;;;;;;5015260;28;20261;-78
2021/03/04 06:14:50;;;;;;;48.77;31.00;;;;;;;;;;5029475;28;20193;-78
2021/03/04 06:17:15;;;;;;;50.77;30.90;;;;;;;;;;5029310;28;20178;-78
2021/03/04 06:19:52;;;;;;;47.87;29.90;;;;;;;;;;5022642;28;20263;-78
2021/03/04 06:22:29;;;;;;;50.10;30.27;;;;;;;;;;5035471;28;20232;-78
2021/03/04 06:24:56;;;;;;;45.00;31.37;;;;;;;;;;5036412;28;20719;-78
2021/03/04 06:27:26;;;;;;;46.43;29.30;;;;;;;;;;5036872;28;20192;-78
2021/03/04 06:29:52;;;;;;;48.77;30.30;;;;;;;;;;5036543;28;20189;-78
2021/03/04 06:32:23;;;;;;;46.37;29.17;;;;;;;;;;5035817;28;20172;-77
2021/03/04 06:34:49;;;;;;;49.03;30.27;;;;;;;;;;5035459;28;20207;-77
2021/03/04 06:37:15;;;;;;;52.20;30.13;;;;;;;;;;5036033;28;20180;-77
2021/03/04 06:39:45;;;;;;;54.33;30.97;;;;;;;;;;5032145;28;20560;-78
2021/03/04 06:42:12;;;;;;;45.27;28.80;;;;;;;;;;5012559;28;20174;-78
2021/03/04 06:44:40;;;;;;;43.23;29.03;;;;;;;;;;5008181;28;20568;-78
2021/03/04 06:47:07;;;;;;;51.53;31.27;;;;;;;;;;5034230;28;20511;-77
2021/03/04 06:49:37;;;;;;;46.50;29.80;;;;;;;;;;5034558;28;20324;-77
2021/03/04 06:52:03;;;;;;;46.17;29.87;;;;;;;;;;5010825;28;20182;-77
2021/03/04 06:54:29;;;;;;;48.87;30.77;;;;;;;;;;5025432;28;20766;-77
2021/03/04 06:56:55;;;;;;;54.30;31.80;;;;;;;;;;5037237;28;20197;-78
2021/03/04 06:59:22;;;;;;;45.67;29.67;;;;;;;;;;5045577;28;20184;-79
2021/03/04 07:01:48;;;;;;;46.10;29.83;;;;;;;;;;5025179;28;20687;-79
2021/03/04 07:04:15;;;;;;;45.93;30.73;;;;;;;;;;5038749;28;20241;-79
2021/03/04 07:06:44;;;;;;;51.73;29.77;;;;;;;;;;5005984;28;20211;-79
2021/03/04 07:09:11;;;;;;;47.60;30.97;;;;;;;;;;5037478;28;20197;-79
2021/03/04 07:11:37;;;;;;;49.53;32.00;;;;;;;;;;5041494;28;20182;-79
2021/03/04 07:14:06;;;;;;;48.20;31.07;;;;;;;;;;5040555;28;20209;-79
2021/03/04 07:16:43;;;;;;;53.70;34.47;;;;;;;;;;5020057;28;20269;-79
2021/03/04 07:19:10;;;;;;;52.03;33.03;;;;;;;;;;5019555;28;20181;-79
2021/03/04 07:21:38;;;;;;;55.13;31.97;;;;;;;;;;5039479;28;20177;-79
2021/03/04 07:24:05;;;;;;;49.93;32.40;;;;;;;;;;5037120;28;20202;-79
2021/03/04 07:26:32;;;;;;;49.70;30.50;;;;;;;;;;5028723;28;20630;-78
2021/03/04 07:28:58;;;;;;;50.00;32.27;;;;;;;;;;5042219;28;20217;-78
2021/03/04 07:31:25;;;;;;;45.83;29.73;;;;;;;;;;5042627;28;20660;-78
2021/03/04 07:33:51;;;;;;;51.90;31.50;;;;;;;;;;5037684;28;20484;-78
2021/03/04 07:36:22;;;;;;;51.13;31.37;;;;;;;;;;5046025;23;20264;-76
2021/03/04 07:38:58;;;;;;;51.63;32.27;;;;;;;;;;5033216;28;20185;-75
2021/03/04 07:41:45;;;;;;;55.90;34.03;;;;;;;;;;5033939;28;20188;-76
2021/03/04 07:44:22;;;;;;;58.67;35.00;;;;;;;;;;5047791;28;20188;-76
2021/03/04 07:46:56;;;;;;;51.23;33.73;;;;;;;;;;5014382;28;20190;-75
2021/03/04 07:49:31;;;;;;;70.57;37.40;;;;;;;;;;5014574;28;20202;-75
2021/03/04 07:52:20;;;;;;;59.10;36.40;;;;;;;;;;5014458;28;20206;-76
2021/03/04 07:54:48;;;;;;;65.97;39.90;;;;;;;;;;5006562;28;20632;-76
2021/03/04 07:57:16;;;;;;;54.83;34.17;;;;;;;;;;5012789;28;20254;-75
2021/03/04 07:59:58;;;;;;;55.03;33.70;;;;;;;;;;5028915;28;20186;-75
2021/03/04 08:02:26;;;;;;;47.23;31.13;;;;;;;;;;5013196;28;20193;-76
2021/03/04 08:04:53;;;;;;;48.90;32.13;;;;;;;;;;5013286;28;20214;-75
2021/03/04 08:07:26;;;;;;;52.33;32.13;;;;;;;;;;5014318;28;20192;-75
2021/03/04 08:09:52;;;;;;;51.30;31.27;;;;;;;;;;5013435;28;20293;-75
2021/03/04 08:12:19;;;;;;;50.90;32.33;;;;;;;;;;5013551;28;20198;-76
2021/03/04 08:14:56;;;;;;;46.63;32.13;;;;;;;;;;5019182;28;20206;-75
2021/03/04 08:17:22;;;;;;;50.07;30.53;;;;;;;;;;5019508;28;20236;-75
2021/03/04 08:19:49;;;;;;;46.83;31.47;;;;;;;;;;5017272;28;20187;-76
2021/03/04 08:22:22;;;;;;;49.93;31.57;;;;;;;;;;5015116;28;20274;-76
2021/03/04 08:24:48;;;;;;;55.07;32.27;;;;;;;;;;5014584;28;20294;-75
2021/03/04 08:27:14;;;;;;;56.53;33.40;;;;;;;;;;5013212;28;20187;-75
2021/03/04 08:29:47;;;;;;;53.13;33.43;;;;;;;;;;5013981;28;20268;-75
2021/03/04 08:32:13;;;;;;;61.43;33.97;;;;;;;;;;5012826;28;20186;-75
2021/03/04 08:34:40;;;;;;;60.87;34.50;;;;;;;;;;5012679;28;20178;-75
2021/03/04 08:37:06;;;;;;;58.53;34.33;;;;;;;;;;5013838;28;20183;-75
2021/03/04 08:39:34;;;;;;;53.07;34.50;;;;;;;;;;5014078;28;20288;-74
2021/03/04 08:42:07;;;;;;;54.47;31.90;;;;;;;;;;5013767;28;20203;-76
2021/03/04 08:44:33;;;;;;;50.40;30.80;;;;;;;;;;5013453;28;20310;-75
2021/03/04 08:46:59;;;;;;;45.93;28.67;;;;;;;;;;5013671;28;20221;-77
2021/03/04 08:49:25;;;;;;;45.80;26.30;;;;;;;;;;5012346;28;20205;-76
2021/03/04 08:51:52;;;;;;;45.37;25.63;;;;;;;;;;5013810;28;20543;-76
2021/03/04 08:54:25;;;;;;;41.33;24.73;;;;;;;;;;5013514;28;20179;-75
2021/03/04 08:56:52;;;;;;;39.83;24.43;;;;;;;;;;5013592;28;20184;-76
2021/03/04 08:59:26;;;;;;;39.03;24.53;;;;;;;;;;5011797;28;20198;-75
2021/03/04 09:01:52;;;;;;;37.27;23.47;;;;;;;;;;5012021;28;20187;-76
2021/03/04 09:04:22;;;;;;;41.57;24.57;;;;;;;;;;5013039;28;20187;-75
2021/03/04 09:06:49;;;;;;;40.67;25.53;;;;;;;;;;5012824;28;20620;-76
2021/03/04 09:09:26;;;;;;;40.83;24.80;;;;;;;;;;5012011;28;20208;-75
2021/03/04 09:11:53;;;;;;;40.03;24.60;;;;;;;;;;5011332;28;20186;-75
2021/03/04 09:14:25;;;;;;;43.70;24.33;;;;;;;;;;5026321;28;20176;-75
2021/03/04 09:16:51;;;;;;;47.20;25.50;;;;;;;;;;5011511;28;20254;-76
2021/03/04 09:19:26;;;;;;;51.37;25.63;;;;;;;;;;5013462;28;20188;-76
2021/03/04 09:21:53;;;;;;;41.03;24.67;;;;;;;;;;5013518;28;20221;-76
2021/03/04 09:24:19;;;;;;;36.50;24.03;;;;;;;;;;5013242;28;20203;-76
2021/03/04 09:26:45;;;;;;;45.77;26.73;;;;;;;;;;4995711;28;20743;-76
2021/03/04 09:29:12;;;;;;;39.60;22.70;;;;;;;;;;5013172;28;20277;-76
2021/03/04 09:31:48;;;;;;;31.73;20.17;;;;;;;;;;5012557;28;20219;-75
2021/03/04 09:34:14;;;;;;;28.67;19.80;;;;;;;;;;5020013;28;20207;-76
2021/03/04 09:36:40;;;;;;;32.23;21.13;;;;;;;;;;5025269;28;20213;-75
2021/03/04 09:39:06;;;;;;;35.27;20.77;;;;;;;;;;5013278;28;20180;-76
2021/03/04 09:41:32;;;;;;;34.07;20.97;;;;;;;;;;5016160;28;20707;-76
2021/03/04 09:44:03;;;;;;;30.43;19.57;;;;;;;;;;5015655;28;20191;-75
2021/03/04 09:46:34;;;;;;;29.20;19.73;;;;;;;;;;5016659;28;20694;-76
2021/03/04 09:49:08;;;;;;;35.17;20.57;;;;;;;;;;5016878;28;20288;-76
2021/03/04 09:51:35;;;;;;;32.87;19.57;;;;;;;;;;5015857;28;20208;-75
2021/03/04 09:54:01;;;;;;;30.30;19.43;;;;;;;;;;5031989;28;20264;-76
2021/03/04 09:56:28;;;;;;;32.13;18.77;;;;;;;;;;5016590;28;20198;-76
2021/03/04 09:58:54;;;;;;;30.70;19.03;;;;;;;;;;5016493;28;20184;-76
2021/03/04 10:01:34;;;;;;;33.67;19.20;;;;;;;;;;5015891;28;20189;-75
2021/03/04 10:04:01;;;;;;;31.57;19.67;;;;;;;;;;5014158;28;20272;-75
2021/03/04 10:06:27;;;;;;;30.57;18.27;;;;;;;;;;5012607;28;20198;-76
2021/03/04 10:08:54;;;;;;;25.13;16.93;;;;;;;;;;5013906;28;20254;-76
2021/03/04 10:11:22;;;;;;;24.60;16.57;;;;;;;;;;5016161;28;20648;-76
2021/03/04 10:13:48;;;;;;;24.03;16.63;;;;;;;;;;5014816;28;20181;-76
2021/03/04 10:16:14;;;;;;;22.73;16.53;;;;;;;;;;5015963;28;20205;-77
2021/03/04 10:18:44;;;;;;;25.10;15.43;;;;;;;;;;5016353;28;20185;-76
2021/03/04 10:21:10;;;;;;;27.47;16.67;;;;;;;;;;5014552;28;20188;-76
2021/03/04 10:23:37;;;;;;;23.77;16.00;;;;;;;;;;5015944;28;20545;-76
2021/03/04 10:26:03;;;;;;;24.40;15.27;;;;;;;;;;5015960;28;20637;-76
2021/03/04 10:28:29;;;;;;;25.53;15.57;;;;;;;;;;5015777;28;20265;-76
2021/03/04 10:30:55;;;;;;;24.13;15.53;;;;;;;;;;5016110;28;20189;-76
2021/03/04 10:33:21;;;;;;;26.23;16.20;;;;;;;;;;5015766;28;20186;-77
2021/03/04 10:35:48;;;;;;;23.63;15.00;;;;;;;;;;5015504;28;20223;-76
2021/03/04 10:38:14;;;;;;;25.30;16.03;;;;;;;;;;5015689;28;20216;-77
2021/03/04 10:40:41;;;;;;;23.40;14.67;;;;;;;;;;5015984;28;20317;-77
2021/03/04 10:43:07;;;;;;;20.70;13.10;;;;;;;;;;5013647;28;20193;-77
2021/03/04 10:45:33;;;;;;;18.73;12.63;;;;;;;;;;5015068;28;20198;-76
2021/03/04 10:47:59;;;;;;;21.00;14.40;;;;;;;;;;5014484;28;20203;-77
2021/03/04 10:50:25;;;;;;;23.33;16.50;;;;;;;;;;5015267;28;20181;-76
2021/03/04 10:52:51;;;;;;;26.47;15.27;;;;;;;;;;5014389;28;20179;-76
2021/03/04 10:55:17;;;;;;;22.23;15.27;;;;;;;;;;5030114;28;20206;-76
2021/03/04 10:57:43;;;;;;;28.20;15.47;;;;;;;;;;5012250;28;20498;-75
2021/03/04 11:00:11;;;;;;;21.40;15.00;;;;;;;;;;5015318;28;20522;-76
2021/03/04 11:02:37;;;;;;;25.40;15.50;;;;;;;;;;5014961;28;20182;-76
2021/03/04 11:05:04;;;;;;;17.77;14.30;;;;;;;;;;5013866;28;20213;-76
2021/03/04 11:07:30;;;;;;;22.43;14.83;;;;;;;;;;5014879;28;20205;-76
2021/03/04 11:09:57;;;;;;;20.77;15.07;;;;;;;;;;5015009;28;20248;-76
2021/03/04 11:12:23;;;;;;;20.87;14.37;;;;;;;;;;5015290;28;20729;-76
2021/03/04 11:14:49;;;;;;;19.43;13.83;;;;;;;;;;5015171;28;20779;-76
2021/03/04 11:17:15;;;;;;;18.23;13.70;;;;;;;;;;5014219;28;20188;-77
2021/03/04 11:19:42;;;;;;;16.07;12.53;;;;;;;;;;5015221;28;20764;-76
2021/03/04 11:22:08;;;;;;;22.77;14.07;;;;;;;;;;5015344;28;20189;-77
2021/03/04 11:24:34;;;;;;;20.37;13.40;;;;;;;;;;5014772;28;20558;-76
2021/03/04 11:27:01;;;;;;;21.20;13.87;;;;;;;;;;5015158;28;20201;-77
2021/03/04 11:29:27;;;;;;;21.73;14.03;;;;;;;;;;5014660;28;20208;-77
2021/03/04 11:31:53;;;;;;;26.53;14.53;;;;;;;;;;5014747;28;20642;-77
2021/03/04 11:34:19;;;;;;;23.43;14.77;;;;;;;;;;5013333;28;20183;-77
2021/03/04 11:36:45;;;;;;;17.50;13.10;;;;;;;;;;5014430;28;20293;-76
2021/03/04 11:39:11;;;;;;;23.00;13.80;;;;;;;;;;5014090;28;20222;-77
2021/03/04 11:41:37;;;;;;;21.47;13.13;;;;;;;;;;5014386;28;20187;-77
2021/03/04 11:44:04;;;;;;;20.47;13.37;;;;;;;;;;5013757;28;20256;-77
2021/03/04 11:46:30;;;;;;;18.63;13.27;;;;;;;;;;5014714;28;20209;-77
2021/03/04 11:48:56;;;;;;;16.70;12.50;;;;;;;;;;5008227;28;20207;-77
2021/03/04 11:51:22;;;;;;;17.00;12.07;;;;;;;;;;5012455;28;21877;-77
2021/03/04 11:53:48;;;;;;;16.10;12.10;;;;;;;;;;5012487;28;20191;-77
2021/03/04 11:56:14;;;;;;;23.17;11.97;;;;;;;;;;5028882;28;20251;-77
2021/03/04 11:58:40;;;;;;;17.07;12.27;;;;;;;;;;5012664;28;20235;-77
2021/03/04 12:01:06;;;;;;;17.60;12.20;;;;;;;;;;5023013;28;20641;-77
2021/03/04 12:03:32;;;;;;;21.03;12.37;;;;;;;;;;5010952;28;20647;-76
2021/03/04 12:05:59;;;;;;;13.60;11.03;;;;;;;;;;5010855;28;20552;-76
2021/03/04 12:08:25;;;;;;;20.23;12.10;;;;;;;;;;5012859;28;20207;-77
2021/03/04 12:10:51;;;;;;;16.70;10.67;;;;;;;;;;5013292;28;20548;-77
2021/03/04 12:13:17;;;;;;;17.23;11.23;;;;;;;;;;5012283;28;20187;-77
2021/03/04 12:15:43;;;;;;;16.93;11.03;;;;;;;;;;5012946;28;20225;-77
2021/03/04 12:18:10;;;;;;;16.73;10.67;;;;;;;;;;5011715;28;20611;-77
2021/03/04 12:20:36;;;;;;;16.77;8.73;;;;;;;;;;5013156;28;20185;-76
2021/03/04 12:23:02;;;;;;;26.73;10.43;;;;;;;;;;5011863;28;20187;-76
2021/03/04 12:25:29;;;;;;;17.33;9.80;;;;;;;;;;5012635;28;20205;-76
2021/03/04 12:27:55;;;;;;;21.23;9.10;;;;;;;;;;5011299;28;20194;-76
2021/03/04 12:30:21;;;;;;;14.20;7.90;;;;;;;;;;5012005;28;20186;-76
2021/03/04 12:32:47;;;;;;;12.10;7.70;;;;;;;;;;5013444;28;20237;-76
2021/03/04 12:35:14;;;;;;;13.27;7.73;;;;;;;;;;5011736;28;20220;-76
2021/03/04 12:37:41;;;;;;;12.53;7.27;;;;;;;;;;5011176;28;20668;-76
2021/03/04 12:40:07;;;;;;;11.17;7.10;;;;;;;;;;5028060;28;20193;-76
2021/03/04 12:42:33;;;;;;;10.33;7.30;;;;;;;;;;5013597;28;20212;-76
2021/03/04 12:44:59;;;;;;;11.73;7.27;;;;;;;;;;5013091;28;20257;-76
2021/03/04 12:47:25;;;;;;;12.10;7.07;;;;;;;;;;5011864;28;20179;-75
2021/03/04 12:49:52;;;;;;;16.33;7.93;;;;;;;;;;5012821;28;20263;-77
2021/03/04 12:52:20;;;;;;;16.40;7.47;;;;;;;;;;5009860;28;20630;-76
2021/03/04 12:54:46;;;;;;;11.17;7.83;;;;;;;;;;5013732;28;20203;-78
2021/03/04 12:57:12;;;;;;;15.83;7.47;;;;;;;;;;5013580;28;20179;-77
2021/03/04 12:59:38;;;;;;;13.13;9.27;;;;;;;;;;5013916;28;20182;-77
2021/03/04 13:02:05;;;;;;;16.93;9.87;;;;;;;;;;5012502;28;20535;-76
2021/03/04 13:04:31;;;;;;;17.30;10.07;;;;;;;;;;5012527;28;20220;-76
2021/03/04 13:06:57;;;;;;;17.47;10.63;;;;;;;;;;5031077;28;20179;-76
2021/03/04 13:09:23;;;;;;;16.23;10.73;;;;;;;;;;5021300;28;20283;-77
2021/03/04 13:11:50;;;;;;;15.10;10.10;;;;;;;;;;5021540;28;20597;-76
2021/03/04 13:14:16;;;;;;;16.27;9.87;;;;;;;;;;5018534;28;20185;-76
2021/03/04 13:16:42;;;;;;;21.87;11.67;;;;;;;;;;5017817;28;20219;-76
2021/03/04 13:19:10;;;;;;;18.60;11.83;;;;;;;;;;5016631;28;20593;-75
2021/03/04 13:21:36;;;;;;;17.23;11.23;;;;;;;;;;5017389;28;20179;-75
2021/03/04 13:24:02;;;;;;;23.30;12.50;;;;;;;;;;5017700;28;20195;-76
2021/03/04 13:26:29;;;;;;;18.53;11.57;;;;;;;;;;5017447;28;20229;-76
2021/03/04 13:28:55;;;;;;;21.90;11.90;;;;;;;;;;5017338;28;20269;-76
2021/03/04 13:31:21;;;;;;;18.97;11.40;;;;;;;;;;5017142;28;20207;-76
2021/03/04 13:33:48;;;;;;;18.13;10.67;;;;;;;;;;5017288;28;20679;-76
2021/03/04 13:36:14;;;;;;;23.23;11.37;;;;;;;;;;5010001;28;20214;-77
2021/03/04 13:38:40;;;;;;;19.37;11.30;;;;;;;;;;5015963;28;20680;-75
2021/03/04 13:41:06;;;;;;;14.13;9.83;;;;;;;;;;5016732;28;20190;-78
2021/03/04 13:43:32;;;;;;;19.13;9.60;;;;;;;;;;5017386;28;20272;-76
2021/03/04 13:45:59;;;;;;;19.63;9.07;;;;;;;;;;5016722;28;20203;-77
2021/03/04 13:48:25;;;;;;;11.57;8.37;;;;;;;;;;5015880;28;20210;-77
2021/03/04 13:50:51;;;;;;;21.43;8.90;;;;;;;;;;5015941;28;20179;-76
2021/03/04 13:53:17;;;;;;;11.83;7.13;;;;;;;;;;5015968;28;20183;-77
2021/03/04 13:55:44;;;;;;;14.70;7.73;;;;;;;;;;5016962;28;20221;-77
2021/03/04 13:58:11;;;;;;;19.43;8.13;;;;;;;;;;5016947;28;20191;-75
2021/03/04 14:00:37;;;;;;;17.87;7.57;;;;;;;;;;5016913;28;20585;-77
2021/03/04 14:03:03;;;;;;;12.37;7.13;;;;;;;;;;5015975;28;20179;-77
2021/03/04 14:05:29;;;;;;;10.67;6.83;;;;;;;;;;5016943;28;20195;-77
2021/03/04 14:07:55;;;;;;;11.30;6.93;;;;;;;;;;5015301;28;20676;-76
2021/03/04 14:10:22;;;;;;;17.57;8.27;;;;;;;;;;5016799;28;20208;-77
2021/03/04 14:12:48;;;;;;;13.33;7.60;;;;;;;;;;5015563;28;20212;-76
2021/03/04 14:15:15;;;;;;;17.13;8.53;;;;;;;;;;5016945;28;20233;-76
2021/03/04 14:17:41;;;;;;;23.13;8.73;;;;;;;;;;5016790;28;20591;-77
2021/03/04 14:20:10;;;;;;;20.23;8.57;;;;;;;;;;5015837;28;20185;-77